Time;durP1;ratioP1;P1;durP2;ratioP2;P2;SDS_P1;SDS_P2;PMS_P1;PMS_P2;Temp;Humidity;BMP_temperature;BMP_pressure;BME280_temperature;BME280_humidity;BME280_pressure;Samples;Min_cycle;Max_cycle;Signal;HPM_P1;HPM_P2
2023/03/15 00:01:27;;;;;;;;;;;;;;;;;;4966056;28;19923;-62
2023/03/15 00:03:55;;;;;;;;;;;;;;;;;;4966482;28;20212;-62
2023/03/15 00:06:21;;;;;;;;;;;;;;;;;;4934990;28;20035;-62
2023/03/15 00:08:46;;;;;;;;;;;;;;;;;;4936440;28;19926;-62
2023/03/15 00:11:11;;;;;;;;;;;;;;;;;;4937750;28;20645;-63
2023/03/15 00:13:37;;;;;;;;;;;;;;;;;;4966673;28;19922;-62
2023/03/15 00:16:04;;;;;;;;;;;;;;;;;;4937450;28;20241;-62
2023/03/15 00:18:30;;;;;;;;;;;;;;;;;;4935478;28;20505;-62
2023/03/15 00:20:55;;;;;;;;;;;;;;;;;;4937890;28;19922;-62
2023/03/15 00:23:20;;;;;;;;;;;;;;;;;;4950015;28;20390;-63
2023/03/15 00:25:46;;;;;;;;;;;;;;;;;;4968014;28;21056;-63
2023/03/15 00:28:11;;;;;;;;;;;;;;;;;;4935656;28;19949;-62
2023/03/15 00:30:39;;;;;;;;;;;;;;;;;;4936205;28;19937;-62
2023/03/15 00:33:07;;;;;;;;;;;;;;;;;;4941231;28;19922;-62
2023/03/15 00:35:35;;;;;;;;;;;;;;;;;;4963592;28;20295;-62
2023/03/15 00:38:05;;;;;;;;;;;;;;;;;;4936082;28;19919;-62
2023/03/15 00:40:30;;;;;;;;;;;;;;;;;;4965275;28;19922;-62
2023/03/15 00:42:56;;;;;;;;;;;;;;;;;;4949070;28;20305;-62
2023/03/15 00:45:24;;;;;;;;;;;;;;;;;;4954159;28;19937;-63
2023/03/15 00:47:52;;;;;;;;;;;;;;;;;;4966489;28;19918;-62
2023/03/15 00:50:17;;;;;;;;;;;;;;;;;;4969921;28;19984;-63
2023/03/15 00:52:42;;;;;;;;;;;;;;;;;;4968828;28;19960;-63
2023/03/15 00:55:08;;;;;;;;;;;;;;;;;;4954995;28;19922;-63
2023/03/15 00:57:35;;;;;;;;;;;;;;;;;;4953774;28;19973;-62
2023/03/15 01:00:07;;;;;;;;;;;;;;;;;;4955183;28;19918;-62
2023/03/15 01:02:33;;;;;;;;;;;;;;;;;;4968900;28;20289;-61
2023/03/15 01:05:00;;;;;;;;;;;;;;;;;;4956403;28;19918;-62
2023/03/15 01:07:28;;;;;;;;;;;;;;;;;;4939343;28;19949;-62
2023/03/15 01:09:57;;;;;;;;;;;;;;;;;;4955061;28;20121;-62
2023/03/15 01:12:22;;;;;;;;;;;;;;;;;;4968961;28;20472;-62
2023/03/15 01:14:47;;;;;;;;;;;;;;;;;;4940833;28;19984;-62
2023/03/15 01:17:12;;;;;;;;;;;;;;;;;;4939936;28;19967;-62
2023/03/15 01:19:43;;;;;;;;;;;;;;;;;;4955449;28;19964;-63
2023/03/15 01:22:08;;;;;;;;;;;;;;;;;;4969295;28;20001;-63
2023/03/15 01:24:33;;;;;;;;;;;;;;;;;;4952213;28;19957;-63
2023/03/15 01:26:59;;;;;;;;;;;;;;;;;;4970094;28;19925;-63
2023/03/15 01:29:24;;;;;;;;;;;;;;;;;;4970070;28;19956;-63
2023/03/15 01:31:49;;;;;;;;;;;;;;;;;;4968062;28;19918;-63
2023/03/15 01:34:17;;;;;;;;;;;;;;;;;;4938491;28;19922;-63
2023/03/15 01:36:48;;;;;;;;;;;;;;;;;;4969967;28;19933;-63
2023/03/15 01:39:13;;;;;;;;;;;;;;;;;;4954257;28;20005;-64
2023/03/15 01:41:41;;;;;;;;;;;;;;;;;;4953859;28;19922;-62
2023/03/15 01:44:12;;;;;;;;;;;;;;;;;;4968692;28;20099;-62
2023/03/15 01:46:37;;;;;;;;;;;;;;;;;;4957607;28;19922;-62
2023/03/15 01:49:05;;;;;;;;;;;;;;;;;;4971187;28;20031;-62
2023/03/15 01:51:33;;;;;;;;;;;;;;;;;;4960096;28;20116;-62
2023/03/15 01:53:59;;;;;;;;;;;;;;;;;;4961544;28;19922;-62
2023/03/15 01:56:24;;;;;;;;;;;;;;;;;;4971997;28;19929;-63
2023/03/15 01:58:50;;;;;;;;;;;;;;;;;;4958384;28;20397;-63
2023/03/15 02:01:15;;;;;;;;;;;;;;;;;;4970388;28;19922;-62
2023/03/15 02:03:45;;;;;;;;;;;;;;;;;;4969391;28;20732;-62
2023/03/15 02:06:16;;;;;;;;;;;;;;;;;;4941772;28;19957;-62
2023/03/15 02:08:44;;;;;;;;;;;;;;;;;;4971292;28;19918;-62
2023/03/15 02:11:09;;;;;;;;;;;;;;;;;;4957597;28;19926;-62
2023/03/15 02:13:37;;;;;;;;;;;;;;;;;;4956943;28;19922;-62
2023/03/15 02:16:07;;;;;;;;;;;;;;;;;;4959881;28;20019;-62
2023/03/15 02:18:34;;;;;;;;;;;;;;;;;;4956970;28;19918;-63
2023/03/15 02:21:02;;;;;;;;;;;;;;;;;;4957407;28;20413;-63
2023/03/15 02:23:30;;;;;;;;;;;;;;;;;;4972888;28;19932;-61
2023/03/15 02:25:58;;;;;;;;;;;;;;;;;;4943453;28;20081;-62
2023/03/15 02:28:23;;;;;;;;;;;;;;;;;;4972616;28;19921;-63
2023/03/15 02:30:51;;;;;;;;;;;;;;;;;;4943141;28;19918;-62
2023/03/15 02:33:19;;;;;;;;;;;;;;;;;;4941576;28;19950;-62
2023/03/15 02:35:47;;;;;;;;;;;;;;;;;;4972545;28;20060;-62
2023/03/15 02:38:15;;;;;;;;;;;;;;;;;;4958915;28;19923;-62
2023/03/15 02:40:40;;;;;;;;;;;;;;;;;;4959264;28;19984;-62
2023/03/15 02:43:08;;;;;;;;;;;;;;;;;;4954946;28;19937;-63
2023/03/15 02:45:33;;;;;;;;;;;;;;;;;;4958062;28;20314;-63
2023/03/15 02:47:59;;;;;;;;;;;;;;;;;;4968917;28;19940;-63
2023/03/15 02:50:24;;;;;;;;;;;;;;;;;;4966664;28;19925;-63
2023/03/15 02:52:52;;;;;;;;;;;;;;;;;;4968583;28;19940;-63
2023/03/15 02:55:18;;;;;;;;;;;;;;;;;;4969060;28;20692;-63
2023/03/15 02:57:46;;;;;;;;;;;;;;;;;;4969086;28;19922;-62
2023/03/15 03:00:16;;;;;;;;;;;;;;;;;;4956375;28;19922;-62
2023/03/15 03:02:42;;;;;;;;;;;;;;;;;;4954439;28;20409;-62
2023/03/15 03:05:07;;;;;;;;;;;;;;;;;;4952011;28;20712;-62
2023/03/15 03:07:32;;;;;;;;;;;;;;;;;;4969541;28;19918;-62
2023/03/15 03:09:58;;;;;;;;;;;;;;;;;;4967307;28;20485;-62
2023/03/15 03:12:23;;;;;;;;;;;;;;;;;;4968161;28;20002;-62
2023/03/15 03:14:51;;;;;;;;;;;;;;;;;;4952361;28;20374;-62
2023/03/15 03:17:16;;;;;;;;;;;;;;;;;;4968767;28;19976;-62
2023/03/15 03:19:41;;;;;;;;;;;;;;;;;;4970451;28;19926;-63
2023/03/15 03:22:12;;;;;;;;;;;;;;;;;;4955423;28;20013;-63
2023/03/15 03:24:37;;;;;;;;;;;;;;;;;;4970508;28;20400;-62
2023/03/15 03:27:02;;;;;;;;;;;;;;;;;;4954174;28;19918;-62
2023/03/15 03:29:27;;;;;;;;;;;;;;;;;;4969921;28;19926;-62
2023/03/15 03:31:56;;;;;;;;;;;;;;;;;;4969167;28;20090;-63
2023/03/15 03:34:21;;;;;;;;;;;;;;;;;;4955585;28;20365;-63
2023/03/15 03:36:47;;;;;;;;;;;;;;;;;;4939655;28;19956;-62
2023/03/15 03:39:15;;;;;;;;;;;;;;;;;;4950940;28;20083;-61
2023/03/15 03:41:40;;;;;;;;;;;;;;;;;;4869725;28;1853658;-63
2023/03/15 03:44:10;;;;;;;;;;;;;;;;;;4963230;28;20682;-62
2023/03/15 03:46:36;;;;;;;;;;;;;;;;;;4947255;28;20444;-63
2023/03/15 03:49:04;;;;;;;;;;;;;;;;;;4961272;28;19945;-62
2023/03/15 03:51:32;;;;;;;;;;;;;;;;;;4961360;28;19922;-62
2023/03/15 03:54:00;;;;;;;;;;;;;;;;;;4959531;28;20274;-63
2023/03/15 03:56:25;;;;;;;;;;;;;;;;;;4918322;28;19964;-62
2023/03/15 03:58:51;;;;;;;;;;;;;;;;;;4946210;28;20643;-63
2023/03/15 04:01:20;;;;;;;;;;;;;;;;;;4955594;28;19937;-63
2023/03/15 04:03:46;;;;;;;;;;;;;;;;;;4942920;28;19957;-63
2023/03/15 04:06:13;;;;;;;;;;;;;;;;;;4954732;28;19918;-64
2023/03/15 04:08:39;;;;;;;;;;;;;;;;;;4951705;28;20121;-64
2023/03/15 04:11:05;;;;;;;;;;;;;;;;;;4970113;28;20040;-63
2023/03/15 04:13:33;;;;;;;;;;;;;;;;;;4957332;28;19997;-62
2023/03/15 04:16:00;;;;;;;;;;;;;;;;;;4969817;28;19922;-63
2023/03/15 04:18:28;;;;;;;;;;;;;;;;;;4968602;28;19929;-63
2023/03/15 04:20:55;;;;;;;;;;;;;;;;;;4968660;28;20381;-63
2023/03/15 04:23:21;;;;;;;;;;;;;;;;;;4955626;28;20013;-63
2023/03/15 04:25:46;;;;;;;;;;;;;;;;;;4954367;28;19922;-62
2023/03/15 04:28:14;;;;;;;;;;;;;;;;;;4969116;28;20284;-63
2023/03/15 04:30:41;;;;;;;;;;;;;;;;;;4927500;28;20017;-63
2023/03/15 04:33:09;;;;;;;;;;;;;;;;;;4969352;28;19924;-63
2023/03/15 04:35:34;;;;;;;;;;;;;;;;;;4952774;28;19922;-63
2023/03/15 04:38:00;;;;;;;;;;;;;;;;;;4967837;28;20467;-62
2023/03/15 04:40:25;;;;;;;;;;;;;;;;;;4951576;28;19958;-63
2023/03/15 04:42:50;;;;;;;;;;;;;;;;;;4952771;28;19926;-62
2023/03/15 04:45:18;;;;;;;;;;;;;;;;;;4966469;28;20281;-62
2023/03/15 04:47:44;;;;;;;;;;;;;;;;;;4949105;28;19922;-63
2023/03/15 04:50:12;;;;;;;;;;;;;;;;;;4950951;28;20293;-63
2023/03/15 04:52:37;;;;;;;;;;;;;;;;;;4938877;28;19929;-63
2023/03/15 04:55:02;;;;;;;;;;;;;;;;;;4953632;28;20441;-63
2023/03/15 04:57:27;;;;;;;;;;;;;;;;;;4954797;28;20631;-63
2023/03/15 04:59:55;;;;;;;;;;;;;;;;;;4934002;28;20016;-63
2023/03/15 05:02:21;;;;;;;;;;;;;;;;;;4953726;28;19965;-63
2023/03/15 05:04:48;;;;;;;;;;;;;;;;;;4965441;28;19926;-63
2023/03/15 05:07:19;;;;;;;;;;;;;;;;;;4953194;28;20284;-63
2023/03/15 05:09:50;;;;;;;;;;;;;;;;;;4934529;28;20404;-64
2023/03/15 05:12:15;;;;;;;;;;;;;;;;;;4953850;28;19921;-63
2023/03/15 05:14:40;;;;;;;;;;;;;;;;;;4948115;28;20021;-64
2023/03/15 05:17:05;;;;;;;;;;;;;;;;;;4966668;28;21261;-63
2023/03/15 05:19:36;;;;;;;;;;;;;;;;;;4965521;28;19993;-63
2023/03/15 05:22:04;;;;;;;;;;;;;;;;;;4948504;28;19929;-63
2023/03/15 05:24:35;;;;;;;;;;;;;;;;;;4923676;28;19930;-63
2023/03/15 05:27:00;;;;;;;;;;;;;;;;;;4964166;28;21236;-63
2023/03/15 05:29:28;;;;;;;;;;;;;;;;;;4952386;28;20007;-63
2023/03/15 05:31:53;;;;;;;;;;;;;;;;;;4924073;28;19921;-63
2023/03/15 05:34:22;;;;;;;;;;;;;;;;;;4963509;28;19951;-63
2023/03/15 05:36:50;;;;;;;;;;;;;;;;;;4954418;28;19971;-62
2023/03/15 05:39:18;;;;;;;;;;;;;;;;;;4947243;28;20469;-63
2023/03/15 05:41:43;;;;;;;;;;;;;;;;;;4967082;28;20302;-63
2023/03/15 05:44:14;;;;;;;;;;;;;;;;;;4961532;28;19926;-63
2023/03/15 05:46:39;;;;;;;;;;;;;;;;;;4966463;28;20290;-63
2023/03/15 05:49:07;;;;;;;;;;;;;;;;;;4945683;28;19962;-63
2023/03/15 05:51:32;;;;;;;;;;;;;;;;;;4967278;28;19922;-63
2023/03/15 05:53:57;;;;;;;;;;;;;;;;;;4936054;28;19996;-63
2023/03/15 05:56:25;;;;;;;;;;;;;;;;;;4965416;28;19944;-63
2023/03/15 05:58:51;;;;;;;;;;;;;;;;;;4952197;28;20370;-63
2023/03/15 06:01:16;;;;;;;;;;;;;;;;;;4938521;28;19925;-63
2023/03/15 06:03:41;;;;;;;;;;;;;;;;;;4964531;28;19925;-63
2023/03/15 06:06:06;;;;;;;;;;;;;;;;;;4967640;28;20396;-62
2023/03/15 06:08:32;;;;;;;;;;;;;;;;;;4966944;28;20433;-63
2023/03/15 06:10:57;;;;;;;;;;;;;;;;;;4955101;28;19918;-62
2023/03/15 06:13:22;;;;;;;;;;;;;;;;;;4954512;28;21416;-63
2023/03/15 06:15:51;;;;;;;;;;;;;;;;;;4956361;28;20077;-63
2023/03/15 06:18:16;;;;;;;;;;;;;;;;;;4954571;28;19921;-63
2023/03/15 06:20:41;;;;;;;;;;;;;;;;;;4953809;28;19934;-64
2023/03/15 06:23:07;;;;;;;;;;;;;;;;;;4952069;28;19922;-63
2023/03/15 06:25:35;;;;;;;;;;;;;;;;;;4954975;28;20099;-62
2023/03/15 06:28:00;;;;;;;;;;;;;;;;;;4954292;28;20373;-63
2023/03/15 06:30:25;;;;;;;;;;;;;;;;;;4969029;28;19918;-64
2023/03/15 06:32:50;;;;;;;;;;;;;;;;;;4970216;28;19922;-63
2023/03/15 06:35:16;;;;;;;;;;;;;;;;;;4970497;28;20397;-63
2023/03/15 06:37:41;;;;;;;;;;;;;;;;;;4957793;28;19968;-63
2023/03/15 06:40:07;;;;;;;;;;;;;;;;;;4971012;28;20012;-63
2023/03/15 06:42:32;;;;;;;;;;;;;;;;;;4956694;28;19926;-64
2023/03/15 06:44:57;;;;;;;;;;;;;;;;;;4957521;28;19965;-63
2023/03/15 06:47:23;;;;;;;;;;;;;;;;;;4945693;28;19980;-63
2023/03/15 06:49:53;;;;;;;;;;;;;;;;;;4929450;28;20375;-64
2023/03/15 06:52:19;;;;;;;;;;;;;;;;;;4970792;28;20261;-64
2023/03/15 06:54:44;;;;;;;;;;;;;;;;;;4954458;28;19918;-65
2023/03/15 06:57:09;;;;;;;;;;;;;;;;;;4944184;28;19948;-64
2023/03/15 06:59:37;;;;;;;;;;;;;;;;;;4971826;28;19954;-64
2023/03/15 07:02:02;;;;;;;;;;;;;;;;;;4971696;28;19981;-64
2023/03/15 07:04:28;;;;;;;;;;;;;;;;;;4954323;28;19922;-64
2023/03/15 07:06:54;;;;;;;;;;;;;;;;;;4931212;28;19937;-64
2023/03/15 07:09:19;;;;;;;;;;;;;;;;;;4946549;28;19922;-64
2023/03/15 07:11:47;;;;;;;;;;;;;;;;;;4970230;28;19929;-64
2023/03/15 07:14:14;;;;;;;;;;;;;;;;;;4956835;28;20401;-63
2023/03/15 07:16:42;;;;;;;;;;;;;;;;;;4958418;28;19921;-62
2023/03/15 07:19:10;;;;;;;;;;;;;;;;;;4955987;28;19929;-63
2023/03/15 07:21:38;;;;;;;;;;;;;;;;;;4970770;28;19952;-63
2023/03/15 07:24:03;;;;;;;;;;;;;;;;;;4969980;28;20504;-62
2023/03/15 07:26:31;;;;;;;;;;;;;;;;;;4970180;28;19989;-63
2023/03/15 07:28:59;;;;;;;;;;;;;;;;;;4971250;28;20061;-63
2023/03/15 07:31:25;;;;;;;;;;;;;;;;;;4958075;28;21579;-64
2023/03/15 07:33:54;;;;;;;;;;;;;;;;;;4954995;28;20679;-63
2023/03/15 07:36:21;;;;;;;;;;;;;;;;;;4955651;28;21526;-63
2023/03/15 07:38:46;;;;;;;;;;;;;;;;;;4946817;28;19965;-64
2023/03/15 07:41:17;;;;;;;;;;;;;;;;;;4972130;28;19926;-64
2023/03/15 07:43:45;;;;;;;;;;;;;;;;;;4954333;28;19973;-69
2023/03/15 07:46:17;;;;;;;;;;;;;;;;;;4972125;28;19972;-66
2023/03/15 07:48:42;;;;;;;;;;;;;;;;;;4973109;28;19973;-64
2023/03/15 07:51:07;;;;;;;;;;;;;;;;;;4972740;28;20408;-65
2023/03/15 07:53:33;;;;;;;;;;;;;;;;;;4958098;28;20369;-65
2023/03/15 07:55:58;;;;;;;;;;;;;;;;;;4973572;28;19918;-64
2023/03/15 07:58:23;;;;;;;;;;;;;;;;;;4956879;28;19933;-66
2023/03/15 08:00:49;;;;;;;;;;;;;;;;;;4957589;28;20413;-64
2023/03/15 08:03:14;;;;;;;;;;;;;;;;;;4958778;28;19918;-64
2023/03/15 08:05:39;;;;;;;;;;;;;;;;;;4954035;28;19922;-64
2023/03/15 08:08:05;;;;;;;;;;;;;;;;;;4957171;28;19918;-64
2023/03/15 08:10:30;;;;;;;;;;;;;;;;;;4939972;28;20018;-64
2023/03/15 08:12:55;;;;;;;;;;;;;;;;;;4972790;28;19917;-63
2023/03/15 08:15:21;;;;;;;;;;;;;;;;;;4957644;28;20371;-64
2023/03/15 08:17:46;;;;;;;;;;;;;;;;;;4972067;28;19922;-63
2023/03/15 08:20:16;;;;;;;;;;;;;;;;;;4971903;28;19926;-65
2023/03/15 08:25:58;;;;;;;;;;;;;;;;;;4957956;28;20766;-64
2023/03/15 08:28:23;;;;;;;;;;;;;;;;;;4973247;28;19918;-64
2023/03/15 08:30:52;;;;;;;;;;;;;;;;;;4957909;28;19922;-65
2023/03/15 08:33:17;;;;;;;;;;;;;;;;;;4941115;28;20271;-64
2023/03/15 08:35:43;;;;;;;;;;;;;;;;;;4946257;28;19922;-66
2023/03/15 08:38:08;;;;;;;;;;;;;;;;;;4975073;28;19926;-67
2023/03/15 08:40:33;;;;;;;;;;;;;;;;;;4971148;28;20447;-65
2023/03/15 08:43:02;;;;;;;;;;;;;;;;;;4973647;28;19930;-67
2023/03/15 08:45:40;;;;;;;;;;;;;;;;;;4945560;28;20365;-64
2023/03/15 08:48:08;;;;;;;;;;;;;;;;;;4959375;28;19926;-65
2023/03/15 08:50:33;;;;;;;;;;;;;;;;;;4941578;28;20005;-67
2023/03/15 08:53:01;;;;;;;;;;;;;;;;;;4946927;28;20189;-69
2023/03/15 08:55:30;;;;;;;;;;;;;;;;;;4952232;28;19969;-64
2023/03/15 08:57:55;;;;;;;;;;;;;;;;;;4957936;28;19940;-64
2023/03/15 09:00:22;;;;;;;;;;;;;;;;;;4958520;28;19926;-65
2023/03/15 09:02:47;;;;;;;;;;;;;;;;;;4938175;28;20116;-64
2023/03/15 09:05:13;;;;;;;;;;;;;;;;;;4955450;28;20440;-64
2023/03/15 09:07:38;;;;;;;;;;;;;;;;;;4939317;28;20372;-64
2023/03/15 09:10:04;;;;;;;;;;;;;;;;;;4958939;28;20417;-64
2023/03/15 09:12:30;;;;;;;;;;;;;;;;;;4956160;28;20306;-66
2023/03/15 09:14:55;;;;;;;;;;;;;;;;;;4956491;28;19918;-64
2023/03/15 09:17:21;;;;;;;;;;;;;;;;;;4940258;28;20887;-66
2023/03/15 09:19:46;;;;;;;;;;;;;;;;;;4938323;28;19928;-64
2023/03/15 09:22:11;;;;;;;;;;;;;;;;;;4955087;28;20714;-64
2023/03/15 09:24:39;;;;;;;;;;;;;;;;;;4942181;28;20713;-66
2023/03/15 09:27:07;;;;;;;;;;;;;;;;;;4958694;28;20021;-67
2023/03/15 09:29:33;;;;;;;;;;;;;;;;;;4955801;28;20424;-64
2023/03/15 09:32:00;;;;;;;;;;;;;;;;;;4962395;28;19993;-65
2023/03/15 09:34:26;;;;;;;;;;;;;;;;;;4956714;28;19976;-68
2023/03/15 09:36:51;;;;;;;;;;;;;;;;;;4954377;28;20332;-64
2023/03/15 09:39:17;;;;;;;;;;;;;;;;;;4956390;28;20321;-64
2023/03/15 09:41:42;;;;;;;;;;;;;;;;;;4945724;28;19961;-64
2023/03/15 09:44:08;;;;;;;;;;;;;;;;;;4970885;28;21533;-65
2023/03/15 09:46:33;;;;;;;;;;;;;;;;;;4943923;28;20061;-65
2023/03/15 09:48:59;;;;;;;;;;;;;;;;;;4952287;28;20024;-65
2023/03/15 09:51:24;;;;;;;;;;;;;;;;;;4955847;28;19918;-68
2023/03/15 09:53:49;;;;;;;;;;;;;;;;;;4970001;28;19922;-65
2023/03/15 09:56:15;;;;;;;;;;;;;;;;;;4955242;28;19922;-65
2023/03/15 09:58:40;;;;;;;;;;;;;;;;;;4971368;28;22036;-65
2023/03/15 10:01:06;;;;;;;;;;;;;;;;;;4971004;28;19929;-66
2023/03/15 10:03:36;;;;;;;;;;;;;;;;;;4969234;28;19925;-65
2023/03/15 10:06:02;;;;;;;;;;;;;;;;;;4970976;28;19929;-66
2023/03/15 10:08:27;;;;;;;;;;;;;;;;;;4960115;28;19918;-65
2023/03/15 10:10:53;;;;;;;;;;;;;;;;;;4931705;28;19951;-68
2023/03/15 10:13:18;;;;;;;;;;;;;;;;;;4973881;28;19922;-67
2023/03/15 10:15:44;;;;;;;;;;;;;;;;;;4960353;28;19922;-69
2023/03/15 10:18:09;;;;;;;;;;;;;;;;;;4971973;28;19918;-65
2023/03/15 10:20:35;;;;;;;;;;;;;;;;;;4945639;28;19922;-69
2023/03/15 10:23:00;;;;;;;;;;;;;;;;;;4972275;28;19922;-65
2023/03/15 10:25:28;;;;;;;;;;;;;;;;;;4959134;28;19972;-66
2023/03/15 10:31:10;;;;;;;;;;;;;;;;;;4959433;28;19957;-64
2023/03/15 10:33:35;;;;;;;;;;;;;;;;;;4958552;28;20437;-65
2023/03/15 10:36:01;;;;;;;;;;;;;;;;;;4956185;28;19924;-65
2023/03/15 10:38:26;;;;;;;;;;;;;;;;;;4944393;28;20587;-67
2023/03/15 10:40:53;;;;;;;;;;;;;;;;;;4958720;28;20001;-66
2023/03/15 10:43:21;;;;;;;;;;;;;;;;;;4970942;28;20031;-65
2023/03/15 10:49:05;;;;;;;;;;;;;;;;;;4957154;28;19941;-65
2023/03/15 10:51:31;;;;;;;;;;;;;;;;;;4958487;28;20302;-65
2023/03/15 10:53:56;;;;;;;;;;;;;;;;;;4970994;28;20475;-65
2023/03/15 10:56:24;;;;;;;;;;;;;;;;;;4955900;28;19929;-65
2023/03/15 10:58:52;;;;;;;;;;;;;;;;;;4957895;28;19922;-69
2023/03/15 11:01:20;;;;;;;;;;;;;;;;;;4957863;28;20311;-65
2023/03/15 11:03:46;;;;;;;;;;;;;;;;;;4970475;28;19922;-65
2023/03/15 11:06:11;;;;;;;;;;;;;;;;;;4971431;28;19925;-65
2023/03/15 11:08:37;;;;;;;;;;;;;;;;;;4940113;28;19965;-67
2023/03/15 11:11:05;;;;;;;;;;;;;;;;;;4972732;28;19965;-66
2023/03/15 11:13:33;;;;;;;;;;;;;;;;;;4945585;28;22072;-65
2023/03/15 11:16:00;;;;;;;;;;;;;;;;;;4971728;28;19984;-65
2023/03/15 11:18:28;;;;;;;;;;;;;;;;;;4970214;28;20044;-66
2023/03/15 11:20:56;;;;;;;;;;;;;;;;;;4972242;28;20499;-68
2023/03/15 11:23:21;;;;;;;;;;;;;;;;;;4958394;28;20050;-68
2023/03/15 11:25:46;;;;;;;;;;;;;;;;;;4942785;28;20697;-65
2023/03/15 11:28:15;;;;;;;;;;;;;;;;;;4955990;28;19922;-65
2023/03/15 11:30:46;;;;;;;;;;;;;;;;;;4957346;28;19992;-64
2023/03/15 11:33:14;;;;;;;;;;;;;;;;;;4954519;28;19975;-67
2023/03/15 11:35:39;;;;;;;;;;;;;;;;;;4971735;28;19918;-65
2023/03/15 11:38:05;;;;;;;;;;;;;;;;;;4940698;28;19960;-65
2023/03/15 11:40:31;;;;;;;;;;;;;;;;;;4954571;28;20108;-66
2023/03/15 11:42:56;;;;;;;;;;;;;;;;;;4958112;28;19980;-65
2023/03/15 11:45:22;;;;;;;;;;;;;;;;;;4954657;28;20320;-66
2023/03/15 11:47:50;;;;;;;;;;;;;;;;;;4931519;28;19922;-65
2023/03/15 11:50:17;;;;;;;;;;;;;;;;;;4937943;28;19926;-64
2023/03/15 11:52:49;;;;;;;;;;;;;;;;;;4971339;28;19925;-64
2023/03/15 11:58:33;;;;;;;;;;;;;;;;;;4955654;28;19980;-65
2023/03/15 12:01:02;;;;;;;;;;;;;;;;;;4971315;28;19926;-65
2023/03/15 12:03:27;;;;;;;;;;;;;;;;;;4956125;28;19921;-65
2023/03/15 12:05:52;;;;;;;;;;;;;;;;;;4970969;28;20536;-65
2023/03/15 12:08:18;;;;;;;;;;;;;;;;;;4940473;28;20062;-65
2023/03/15 12:10:49;;;;;;;;;;;;;;;;;;4971217;28;19956;-66
2023/03/15 12:13:14;;;;;;;;;;;;;;;;;;4967628;28;19941;-66
2023/03/15 12:15:42;;;;;;;;;;;;;;;;;;4943161;28;19933;-66
2023/03/15 12:18:14;;;;;;;;;;;;;;;;;;4972149;28;19922;-67
2023/03/15 12:20:42;;;;;;;;;;;;;;;;;;4943075;28;19925;-66
2023/03/15 12:23:07;;;;;;;;;;;;;;;;;;4956786;28;19922;-66
2023/03/15 12:25:33;;;;;;;;;;;;;;;;;;4955995;28;20126;-65
2023/03/15 12:27:58;;;;;;;;;;;;;;;;;;4933106;28;20794;-67
2023/03/15 12:30:26;;;;;;;;;;;;;;;;;;4955428;28;20420;-65
2023/03/15 12:32:51;;;;;;;;;;;;;;;;;;4925424;28;19918;-65
2023/03/15 12:35:18;;;;;;;;;;;;;;;;;;4964842;28;19933;-66
2023/03/15 12:37:46;;;;;;;;;;;;;;;;;;4968842;28;19918;-66
2023/03/15 12:40:12;;;;;;;;;;;;;;;;;;4955607;28;19985;-65
2023/03/15 12:42:37;;;;;;;;;;;;;;;;;;4952219;28;19925;-64
2023/03/15 12:45:05;;;;;;;;;;;;;;;;;;4967261;28;20507;-64
2023/03/15 12:47:31;;;;;;;;;;;;;;;;;;4969606;28;19917;-65
2023/03/15 12:49:59;;;;;;;;;;;;;;;;;;4955608;28;19926;-65
2023/03/15 12:52:24;;;;;;;;;;;;;;;;;;4940943;28;19941;-68
2023/03/15 12:54:50;;;;;;;;;;;;;;;;;;4941551;28;21503;-65
2023/03/15 12:57:15;;;;;;;;;;;;;;;;;;4962241;28;19918;-64
2023/03/15 12:59:43;;;;;;;;;;;;;;;;;;4952081;28;19922;-65
2023/03/15 13:02:08;;;;;;;;;;;;;;;;;;4968283;28;20419;-64
2023/03/15 13:04:36;;;;;;;;;;;;;;;;;;4969367;28;20452;-65
2023/03/15 13:07:02;;;;;;;;;;;;;;;;;;4955337;28;19921;-65
2023/03/15 13:09:29;;;;;;;;;;;;;;;;;;4954406;28;20255;-67
2023/03/15 13:11:54;;;;;;;;;;;;;;;;;;4968354;28;19949;-66
2023/03/15 13:14:20;;;;;;;;;;;;;;;;;;4948478;28;21589;-66
2023/03/15 13:16:47;;;;;;;;;;;;;;;;;;4952188;28;20244;-64
2023/03/15 13:19:13;;;;;;;;;;;;;;;;;;4957346;28;19965;-64
2023/03/15 13:21:41;;;;;;;;;;;;;;;;;;4966500;28;20005;-64
2023/03/15 13:24:07;;;;;;;;;;;;;;;;;;4952624;28;19922;-64
2023/03/15 13:26:35;;;;;;;;;;;;;;;;;;4953696;28;19918;-67
2023/03/15 13:29:05;;;;;;;;;;;;;;;;;;4941021;28;19925;-64
2023/03/15 13:31:30;;;;;;;;;;;;;;;;;;4966196;28;19925;-69
2023/03/15 13:34:00;;;;;;;;;;;;;;;;;;4967990;28;19921;-63
2023/03/15 13:36:28;;;;;;;;;;;;;;;;;;4967678;28;19922;-65
2023/03/15 13:38:53;;;;;;;;;;;;;;;;;;4937037;28;20024;-64
2023/03/15 13:41:18;;;;;;;;;;;;;;;;;;4969261;28;20409;-65
2023/03/15 13:43:44;;;;;;;;;;;;;;;;;;4954127;28;19954;-64
2023/03/15 13:46:09;;;;;;;;;;;;;;;;;;4940091;28;19945;-64
2023/03/15 13:48:34;;;;;;;;;;;;;;;;;;4952472;28;20017;-65
2023/03/15 13:51:00;;;;;;;;;;;;;;;;;;4966409;28;19937;-65
2023/03/15 13:53:25;;;;;;;;;;;;;;;;;;4967605;28;19926;-64
2023/03/15 13:55:53;;;;;;;;;;;;;;;;;;4971322;28;19977;-66
2023/03/15 13:58:23;;;;;;;;;;;;;;;;;;4958163;28;19925;-64
2023/03/15 14:00:49;;;;;;;;;;;;;;;;;;4958578;28;19918;-65
2023/03/15 14:03:15;;;;;;;;;;;;;;;;;;4973006;28;19918;-64
2023/03/15 14:05:43;;;;;;;;;;;;;;;;;;4957205;28;20309;-64
2023/03/15 14:08:11;;;;;;;;;;;;;;;;;;4971800;28;20413;-64
2023/03/15 14:10:36;;;;;;;;;;;;;;;;;;4958471;28;19965;-64
2023/03/15 14:13:02;;;;;;;;;;;;;;;;;;4972349;28;19922;-64
2023/03/15 14:15:27;;;;;;;;;;;;;;;;;;4957415;28;20012;-64
2023/03/15 14:17:55;;;;;;;;;;;;;;;;;;4958189;28;19929;-63
2023/03/15 14:20:23;;;;;;;;;;;;;;;;;;4971859;28;20405;-63
2023/03/15 14:22:48;;;;;;;;;;;;;;;;;;4968032;28;19963;-63
2023/03/15 14:25:14;;;;;;;;;;;;;;;;;;4955537;28;20233;-64
2023/03/15 14:27:39;;;;;;;;;;;;;;;;;;4973257;28;20247;-64
2023/03/15 14:30:07;;;;;;;;;;;;;;;;;;4968082;28;20000;-61
2023/03/15 14:32:35;;;;;;;;;;;;;;;;;;4955223;28;19917;-62
2023/03/15 14:35:01;;;;;;;;;;;;;;;;;;4928049;28;19918;-66
2023/03/15 14:37:31;;;;;;;;;;;;;;;;;;4968628;28;20464;-64
2023/03/15 14:39:59;;;;;;;;;;;;;;;;;;4955753;28;19929;-64
2023/03/15 14:42:24;;;;;;;;;;;;;;;;;;4970088;28;20147;-64
2023/03/15 14:44:50;;;;;;;;;;;;;;;;;;4971312;28;19926;-63
2023/03/15 14:47:15;;;;;;;;;;;;;;;;;;4957328;28;20921;-63
2023/03/15 14:49:43;;;;;;;;;;;;;;;;;;4957985;28;20301;-64
2023/03/15 14:52:08;;;;;;;;;;;;;;;;;;4954170;28;19917;-63
2023/03/15 14:54:33;;;;;;;;;;;;;;;;;;4964435;28;20368;-62
2023/03/15 14:57:01;;;;;;;;;;;;;;;;;;4954849;28;19933;-62
2023/03/15 14:59:26;;;;;;;;;;;;;;;;;;4970644;28;20392;-63
2023/03/15 15:01:54;;;;;;;;;;;;;;;;;;4967073;28;19922;-62
2023/03/15 15:04:20;;;;;;;;;;;;;;;;;;4953221;28;19922;-62
2023/03/15 15:06:52;;;;;;;;;;;;;;;;;;4933131;28;19952;-63
2023/03/15 15:09:20;;;;;;;;;;;;;;;;;;4953881;28;19925;-65
2023/03/15 15:11:46;;;;;;;;;;;;;;;;;;4971268;28;19925;-63
2023/03/15 15:14:16;;;;;;;;;;;;;;;;;;4954141;28;20016;-64
2023/03/15 15:16:44;;;;;;;;;;;;;;;;;;4941205;28;19922;-62
2023/03/15 15:19:10;;;;;;;;;;;;;;;;;;4956476;28;20385;-63
2023/03/15 15:21:37;;;;;;;;;;;;;;;;;;4956887;28;20216;-62
2023/03/15 15:24:05;;;;;;;;;;;;;;;;;;4971639;28;20025;-63
2023/03/15 15:26:31;;;;;;;;;;;;;;;;;;4945128;28;19933;-63
2023/03/15 15:28:56;;;;;;;;;;;;;;;;;;4968918;28;19929;-62
2023/03/15 15:31:21;;;;;;;;;;;;;;;;;;4957154;28;19922;-63
2023/03/15 15:33:49;;;;;;;;;;;;;;;;;;4956272;28;20394;-62
2023/03/15 15:36:17;;;;;;;;;;;;;;;;;;4951783;28;19928;-62
2023/03/15 15:38:42;;;;;;;;;;;;;;;;;;4954525;28;20507;-62
2023/03/15 15:41:07;;;;;;;;;;;;;;;;;;4970662;28;19940;-62
2023/03/15 15:43:33;;;;;;;;;;;;;;;;;;4957204;28;19926;-62
2023/03/15 15:45:58;;;;;;;;;;;;;;;;;;4968590;28;19925;-62
2023/03/15 15:48:26;;;;;;;;;;;;;;;;;;4952744;28;19943;-62
2023/03/15 15:50:51;;;;;;;;;;;;;;;;;;4968749;28;19933;-62
2023/03/15 15:53:16;;;;;;;;;;;;;;;;;;4954178;28;19921;-62
2023/03/15 15:55:43;;;;;;;;;;;;;;;;;;4954613;28;19922;-62
2023/03/15 15:58:10;;;;;;;;;;;;;;;;;;4970248;28;20045;-62
2023/03/15 16:00:38;;;;;;;;;;;;;;;;;;4965717;28;19936;-62
2023/03/15 16:03:04;;;;;;;;;;;;;;;;;;4965595;28;19922;-62
2023/03/15 16:05:31;;;;;;;;;;;;;;;;;;4953608;28;20290;-62
2023/03/15 16:07:57;;;;;;;;;;;;;;;;;;4954183;28;19921;-62
2023/03/15 16:10:22;;;;;;;;;;;;;;;;;;4952722;28;20009;-62
2023/03/15 16:12:53;;;;;;;;;;;;;;;;;;4939721;28;19924;-62
2023/03/15 16:15:18;;;;;;;;;;;;;;;;;;4953630;28;19922;-61
2023/03/15 16:17:44;;;;;;;;;;;;;;;;;;4970038;28;20305;-61
2023/03/15 16:20:11;;;;;;;;;;;;;;;;;;4954544;28;19957;-61
2023/03/15 16:22:39;;;;;;;;;;;;;;;;;;4955444;28;20104;-61
2023/03/15 16:25:07;;;;;;;;;;;;;;;;;;4941121;28;19921;-61
2023/03/15 16:27:35;;;;;;;;;;;;;;;;;;4969226;28;19918;-62
2023/03/15 16:30:03;;;;;;;;;;;;;;;;;;4969928;28;19929;-62
2023/03/15 16:32:28;;;;;;;;;;;;;;;;;;4970498;28;19960;-62
2023/03/15 16:34:53;;;;;;;;;;;;;;;;;;4955169;28;20370;-61
2023/03/15 16:37:19;;;;;;;;;;;;;;;;;;4951375;28;21406;-61
2023/03/15 16:39:44;;;;;;;;;;;;;;;;;;4966749;28;20000;-61
2023/03/15 16:42:09;;;;;;;;;;;;;;;;;;4956369;28;19922;-61
2023/03/15 16:44:35;;;;;;;;;;;;;;;;;;4969879;28;20054;-61
2023/03/15 16:47:05;;;;;;;;;;;;;;;;;;4956503;28;20116;-61
2023/03/15 16:49:31;;;;;;;;;;;;;;;;;;4937723;28;19956;-62
2023/03/15 16:51:56;;;;;;;;;;;;;;;;;;4968824;28;19928;-61
2023/03/15 16:54:24;;;;;;;;;;;;;;;;;;4950824;28;19928;-62